Terminal Aerodrome Forecast
Issued by NWS

Home | Current Version | Previous Version | Text Only | Print | Product List | Glossary On
Versions: 1 2 3 4 5 6 7 8 9 10 11 12 13
000
FTUS46 KPDT 291100
TAFYKM
TAF
KYKM 291125Z 2912/3012 05007KT P6SM VCSH SCT045 OVC060
     FM291500 34013G20KT P6SM SCT050 BKN070
     FM291800 34015G25KT P6SM FEW080
     FM300200 29011KT P6SM SKC=

USA.gov is the U.S. government's official web portal to all federal, state and local government web resources and services.